Albertville, Wisconsin
Current Conditions -  °F | °C
As of 3:55 AM on Thursday 29 Jan 2015 (Local Time) from KLUM Reporting Station
Haze Haze  
Wind Chill: 22°   Ceiling: 800
Heat Index: 31°   Visibility: 2.5mi
Dew Point: 29°   Wind: 10mph
Humidity: 94%   Direction: 290°WNW
Pressure: 29.88"   Gusts: NA
Location:  45.0099°N, 91.7075°W
Report Text: KLUM 290955Z AUTO 29009KT 2 1/2SM BR OVC008 00/M01 A2988 RMK AO2 T10051014
Loading
Personal Weather Stations






























Interactive Weather Map New forecast layout! Learn more

10-Day Weather Forecast

Advertisements
Track Severe Weather on mobile